Time;durP1;ratioP1;P1;durP2;ratioP2;P2;SDS_P1;SDS_P2;PMS_P1;PMS_P2;Temp;Humidity;BMP_temperature;BMP_pressure;BME280_temperature;BME280_humidity;BME280_pressure;Samples;Min_cycle;Max_cycle;Signal;HPM_P1;HPM_P2
2022/07/25 00:00:56;;;;;;;4.20;3.90;;;;;25.70;100085.00;;;;2086931;28;21134;-54
2022/07/25 00:01:56;;;;;;;4.30;4.00;;;;;25.70;100090.00;;;;2079405;28;20209;-53
2022/07/25 00:02:56;;;;;;;4.70;4.30;;;;;25.70;100086.00;;;;2077993;28;20332;-54
2022/07/25 00:03:57;;;;;;;4.07;3.77;;;;;25.70;100084.00;;;;2077859;28;20213;-54
2022/07/25 00:04:57;;;;;;;4.73;4.33;;;;;25.70;100083.00;;;;2078066;28;20214;-53
2022/07/25 00:05:57;;;;;;;4.00;3.70;;;;;25.70;100078.00;;;;2078533;28;20220;-53
2022/07/25 00:06:58;;;;;;;4.50;4.20;;;;;25.70;100074.00;;;;2078660;28;20209;-53
2022/07/25 00:07:58;;;;;;;4.17;3.87;;;;;25.70;100068.00;;;;2077204;28;20256;-54
2022/07/25 00:08:58;;;;;;;4.00;3.70;;;;;25.70;100069.00;;;;2077741;28;20244;-53
2022/07/25 00:09:59;;;;;;;4.50;4.20;;;;;25.70;100074.00;;;;2078784;28;20314;-53
2022/07/25 00:10:59;;;;;;;4.90;4.50;;;;;25.70;100063.00;;;;2078438;28;20213;-53
2022/07/25 00:11:59;;;;;;;4.50;4.20;;;;;25.70;100061.00;;;;2078620;28;20300;-53
2022/07/25 00:13:00;;;;;;;4.30;4.00;;;;;25.70;100056.00;;;;2078526;28;20217;-53
2022/07/25 00:14:00;;;;;;;3.90;3.60;;;;;25.70;100053.00;;;;2078655;28;20219;-53
2022/07/25 00:15:00;;;;;;;4.20;3.90;;;;;25.70;100060.00;;;;2078589;28;20204;-54
2022/07/25 00:16:01;;;;;;;4.53;4.23;;;;;25.70;100047.00;;;;2078507;28;20210;-53
2022/07/25 00:17:01;;;;;;;4.60;4.30;;;;;25.70;100045.00;;;;2078600;28;20348;-54
2022/07/25 00:18:02;;;;;;;4.37;4.07;;;;;25.70;100052.00;;;;2077744;28;20217;-53
2022/07/25 00:19:02;;;;;;;3.90;3.60;;;;;25.70;100044.00;;;;2078699;28;20217;-53
2022/07/25 00:20:03;;;;;;;4.10;3.80;;;;;25.70;100045.00;;;;2078742;28;20210;-53
2022/07/25 00:21:03;;;;;;;4.43;4.07;;;;;25.70;100045.00;;;;2078592;28;20213;-53
2022/07/25 00:22:04;;;;;;;4.53;4.20;;;;;25.70;100041.00;;;;2078322;28;20217;-53
2022/07/25 00:23:04;;;;;;;4.50;4.20;;;;;25.70;100043.00;;;;2078512;28;20221;-53
2022/07/25 00:24:05;;;;;;;4.70;4.40;;;;;25.70;100027.00;;;;2086137;28;20224;-53
2022/07/25 00:25:05;;;;;;;4.37;4.03;;;;;25.70;100037.00;;;;2086754;28;20213;-53
2022/07/25 00:26:06;;;;;;;4.20;3.90;;;;;25.70;100034.00;;;;2086563;28;20217;-53
2022/07/25 00:27:06;;;;;;;4.47;4.17;;;;;25.70;100032.00;;;;2086474;28;20235;-53
2022/07/25 00:28:06;;;;;;;4.63;4.33;;;;;25.60;100034.00;;;;2078910;28;20213;-53
2022/07/25 00:29:07;;;;;;;4.40;4.10;;;;;25.60;100026.00;;;;2078814;28;20256;-53
2022/07/25 00:30:08;;;;;;;4.50;4.20;;;;;25.70;100020.00;;;;2078032;28;20240;-53
2022/07/25 00:31:08;;;;;;;4.47;4.17;;;;;25.70;100051.00;;;;2077937;28;20218;-53
2022/07/25 00:32:08;;;;;;;4.40;4.10;;;;;25.60;100021.00;;;;2078055;28;20453;-53
2022/07/25 00:33:09;;;;;;;4.40;4.10;;;;;25.70;100035.00;;;;2079189;28;20682;-54
2022/07/25 00:34:09;;;;;;;4.43;4.13;;;;;25.70;100033.00;;;;2086907;28;20215;-53
2022/07/25 00:35:10;;;;;;;4.63;4.33;;;;;25.70;100031.00;;;;2086818;28;20205;-54
2022/07/25 00:36:10;;;;;;;5.07;4.67;;;;;25.70;100029.00;;;;2085875;28;20209;-53
2022/07/25 00:37:10;;;;;;;4.73;4.40;;;;;25.70;100026.00;;;;2085289;28;20290;-53
2022/07/25 00:38:11;;;;;;;4.13;3.83;;;;;25.70;100031.00;;;;2085910;28;20213;-53
2022/07/25 00:39:11;;;;;;;4.60;4.30;;;;;25.70;100034.00;;;;2086796;28;20213;-53
2022/07/25 00:40:12;;;;;;;4.77;4.37;;;;;25.70;100029.00;;;;2086931;28;22218;-53
2022/07/25 00:41:12;;;;;;;4.13;3.83;;;;;25.70;100026.00;;;;2083074;28;20223;-53
2022/07/25 00:42:12;;;;;;;4.20;3.90;;;;;25.70;100024.00;;;;2085992;28;20225;-53
2022/07/25 00:43:13;;;;;;;4.60;4.30;;;;;25.60;100022.00;;;;2086146;28;20646;-54
2022/07/25 00:44:31;;;;;;;4.77;4.47;;;;;25.60;100026.00;;;;2083959;28;20217;-53
2022/07/25 00:45:31;;;;;;;4.32;4.03;;;;;25.60;100023.00;;;;2084385;28;20904;-53
2022/07/25 00:46:31;;;;;;;4.23;3.93;;;;;25.60;100021.00;;;;2086617;28;20217;-53
2022/07/25 00:47:32;;;;;;;4.60;4.30;;;;;25.60;100019.00;;;;2085600;28;20224;-53
2022/07/25 00:48:32;;;;;;;4.47;4.17;;;;;25.70;100018.00;;;;2086835;28;20286;-54
2022/07/25 00:49:32;;;;;;;4.53;4.17;;;;;25.70;100020.00;;;;2086758;28;20251;-54
2022/07/25 00:50:33;;;;;;;4.50;4.20;;;;;25.70;100025.00;;;;2085142;28;20215;-54
2022/07/25 00:51:33;;;;;;;4.37;4.07;;;;;25.60;100016.00;;;;2079933;28;20530;-53
2022/07/25 00:52:33;;;;;;;4.53;4.23;;;;;25.60;100022.00;;;;2079282;28;20732;-53
2022/07/25 00:53:37;;;;;;;4.40;4.10;;;;;25.70;100017.00;;;;2081436;28;20214;-53
2022/07/25 00:54:37;;;;;;;5.00;4.60;;;;;25.70;100007.00;;;;2088273;28;20262;-53
2022/07/25 00:55:37;;;;;;;5.13;4.63;;;;;25.60;100020.00;;;;2087390;28;20436;-53
2022/07/25 00:56:38;;;;;;;4.40;4.10;;;;;25.70;100020.00;;;;2087199;28;20239;-53
2022/07/25 00:57:38;;;;;;;4.43;4.13;;;;;25.70;100003.00;;;;2086691;28;20328;-53
2022/07/25 00:58:38;;;;;;;4.43;4.13;;;;;25.70;100012.00;;;;2087564;28;20209;-53
2022/07/25 00:59:39;;;;;;;4.20;3.90;;;;;25.60;100010.00;;;;2088413;28;20208;-53
2022/07/25 01:00:39;;;;;;;4.27;3.97;;;;;25.60;100003.00;;;;2087172;28;20251;-53
2022/07/25 01:01:41;;;;;;;4.70;4.30;;;;;25.60;100012.00;;;;2088133;28;20205;-53
2022/07/25 01:02:41;;;;;;;4.90;4.60;;;;;25.60;100011.00;;;;2088334;28;20208;-53
2022/07/25 01:03:42;;;;;;;5.20;4.80;;;;;25.60;100010.00;;;;2080916;28;20229;-53
2022/07/25 01:04:42;;;;;;;4.80;4.40;;;;;25.60;100004.00;;;;2084088;28;20216;-53
2022/07/25 01:05:43;;;;;;;4.50;4.13;;;;;25.60;100002.00;;;;2079177;28;20221;-53
2022/07/25 01:06:43;;;;;;;4.70;4.40;;;;;25.60;100004.00;;;;2087259;28;20243;-53
2022/07/25 01:07:43;;;;;;;4.70;4.30;;;;;25.60;100011.00;;;;2084997;28;20910;-53
2022/07/25 01:08:44;;;;;;;4.40;4.10;;;;;25.60;100004.00;;;;2087562;28;20213;-53
2022/07/25 01:09:44;;;;;;;5.07;4.67;;;;;25.60;100025.00;;;;2087119;28;22756;-53
2022/07/25 01:10:45;;;;;;;4.50;4.20;;;;;25.60;100004.00;;;;2087718;28;20697;-53
2022/07/25 01:11:45;;;;;;;5.13;4.73;;;;;25.60;100011.00;;;;2087470;28;20705;-53
2022/07/25 01:12:52;;;;;;;4.43;4.13;;;;;25.60;100007.00;;;;2088138;28;20480;-53
2022/07/25 01:13:52;;;;;;;4.15;3.85;;;;;25.60;100007.00;;;;2087412;28;20216;-53
2022/07/25 01:14:52;;;;;;;4.20;3.90;;;;;25.60;100008.00;;;;2087562;28;20659;-53
2022/07/25 01:15:53;;;;;;;4.63;4.33;;;;;25.60;100007.00;;;;2087908;28;20590;-53
2022/07/25 01:16:53;;;;;;;4.53;4.23;;;;;25.60;100016.00;;;;2088121;28;20603;-53
2022/07/25 01:17:53;;;;;;;4.60;4.30;;;;;25.60;100008.00;;;;2087324;28;20229;-53
2022/07/25 01:18:54;;;;;;;5.40;5.00;;;;;25.60;99997.00;;;;2081431;28;20221;-53
2022/07/25 01:19:54;;;;;;;4.80;4.40;;;;;25.60;100006.00;;;;2079816;28;20232;-53
2022/07/25 01:20:54;;;;;;;4.80;4.40;;;;;25.60;100000.00;;;;2079908;28;20217;-54
2022/07/25 01:21:55;;;;;;;4.43;4.13;;;;;25.60;100003.00;;;;2080068;28;20237;-53
2022/07/25 01:22:55;;;;;;;4.93;4.63;;;;;25.60;100007.00;;;;2080125;28;20237;-53
2022/07/25 01:23:55;;;;;;;4.50;4.20;;;;;25.60;100008.00;;;;2079540;28;20221;-53
2022/07/25 01:24:56;;;;;;;4.63;4.27;;;;;25.60;100000.00;;;;2079578;28;20268;-53
2022/07/25 01:25:56;;;;;;;4.67;4.37;;;;;25.60;100002.00;;;;2080028;28;20722;-53
2022/07/25 01:26:56;;;;;;;4.70;4.40;;;;;25.60;100000.00;;;;2079874;28;20937;-54
2022/07/25 01:27:57;;;;;;;5.30;4.90;;;;;25.60;100001.00;;;;2078696;28;20298;-53
2022/07/25 01:28:57;;;;;;;4.90;4.60;;;;;25.60;99995.00;;;;2079816;28;20226;-53
2022/07/25 01:29:57;;;;;;;4.67;4.37;;;;;25.60;99999.00;;;;2079948;28;20685;-53
2022/07/25 01:30:58;;;;;;;4.90;4.50;;;;;25.60;99998.00;;;;2079759;28;20239;-53
2022/07/25 01:31:58;;;;;;;4.80;4.40;;;;;25.60;99997.00;;;;2080011;28;20225;-53
2022/07/25 01:32:58;;;;;;;5.43;5.03;;;;;25.60;99997.00;;;;2083706;28;20209;-53
2022/07/25 01:33:59;;;;;;;4.60;4.20;;;;;25.60;99997.00;;;;2088095;28;20213;-53
2022/07/25 01:34:59;;;;;;;5.00;4.63;;;;;25.60;99998.00;;;;2087939;28;20240;-53
2022/07/25 01:35:59;;;;;;;4.90;4.53;;;;;25.60;99987.00;;;;2088039;28;20217;-53
2022/07/25 01:37:00;;;;;;;4.60;4.30;;;;;25.60;99997.00;;;;2087780;28;20243;-53
2022/07/25 01:38:00;;;;;;;5.20;4.80;;;;;25.60;99996.00;;;;2087135;28;20212;-53
2022/07/25 01:39:00;;;;;;;5.43;5.03;;;;;25.60;99994.00;;;;2087582;28;20865;-53
2022/07/25 01:40:01;;;;;;;5.07;4.67;;;;;25.60;99996.00;;;;2087075;28;22433;-59
2022/07/25 01:41:01;;;;;;;4.83;4.50;;;;;25.60;99979.00;;;;2087267;28;20217;-56
2022/07/25 01:42:02;;;;;;;4.70;4.40;;;;;25.60;99991.00;;;;2087312;28;20223;-56
2022/07/25 01:43:02;;;;;;;4.80;4.40;;;;;25.60;99971.00;;;;2087975;28;20213;-55
2022/07/25 01:44:02;;;;;;;4.70;4.40;;;;;25.60;99987.00;;;;2088083;28;20209;-54
2022/07/25 01:45:03;;;;;;;4.63;4.33;;;;;25.60;99992.00;;;;2087224;28;20247;-53
2022/07/25 01:46:04;;;;;;;4.67;4.37;;;;;25.60;99983.00;;;;2087485;28;20724;-53
2022/07/25 01:47:04;;;;;;;4.50;4.20;;;;;25.60;99992.00;;;;2087287;28;20467;-53
2022/07/25 01:48:05;;;;;;;4.97;4.60;;;;;25.60;99985.00;;;;2086202;28;20219;-53
2022/07/25 01:49:05;;;;;;;5.10;4.70;;;;;25.60;99988.00;;;;2084120;28;20248;-53
2022/07/25 01:50:06;;;;;;;5.20;4.80;;;;;25.60;99989.00;;;;2079581;28;20218;-53
2022/07/25 01:51:09;;;;;;;5.30;4.90;;;;;25.60;99989.00;;;;2080933;28;20255;-53
2022/07/25 01:52:10;;;;;;;5.38;4.90;;;;;25.60;99993.00;;;;2087861;28;20979;-53
2022/07/25 01:53:10;;;;;;;4.82;4.47;;;;;25.60;99989.00;;;;2087562;28;20209;-53
2022/07/25 01:54:10;;;;;;;5.00;4.60;;;;;24.90;99990.00;;;;2087856;28;20290;-53
2022/07/25 01:55:11;;;;;;;5.00;4.60;;;;;25.60;99993.00;;;;2082756;28;20217;-54
2022/07/25 01:56:11;;;;;;;5.20;4.80;;;;;25.60;99983.00;;;;2079657;28;20228;-53
2022/07/25 01:57:12;;;;;;;4.50;4.20;;;;;25.60;99990.00;;;;2079397;28;20218;-53
2022/07/25 01:58:12;;;;;;;5.50;5.10;;;;;25.60;99988.00;;;;2078756;28;20213;-53
2022/07/25 01:59:12;;;;;;;4.50;4.20;;;;;25.60;99996.00;;;;2079548;28;20293;-53
2022/07/25 02:00:13;;;;;;;4.40;4.10;;;;;25.60;99999.00;;;;2079520;28;20213;-53
2022/07/25 02:01:13;;;;;;;4.63;4.33;;;;;25.60;99981.00;;;;2078895;28;20225;-53
2022/07/25 02:02:14;;;;;;;5.73;5.30;;;;;25.60;99985.00;;;;2079178;28;20487;-53
2022/07/25 02:03:29;;;;;;;4.00;3.70;;;;;25.60;99995.00;;;;2078890;28;20209;-53
2022/07/25 02:04:30;;;;;;;5.00;4.60;;;;;25.60;99976.00;;;;2078997;28;20337;-53
2022/07/25 02:05:30;;;;;;;4.70;4.40;;;;;25.60;99971.00;;;;2079637;28;20680;-53
2022/07/25 02:06:30;;;;;;;4.90;4.50;;;;;25.60;99970.00;;;;2079718;28;20209;-53
2022/07/25 02:07:31;;;;;;;4.90;4.53;;;;;25.60;99968.00;;;;2078315;28;20206;-53
2022/07/25 02:08:31;;;;;;;4.50;4.20;;;;;25.60;99983.00;;;;2079495;28;20328;-53
2022/07/25 02:09:31;;;;;;;4.80;4.40;;;;;25.60;99972.00;;;;2079587;28;20217;-53
2022/07/25 02:10:32;;;;;;;4.60;4.30;;;;;25.60;99968.00;;;;2079632;28;20210;-53
2022/07/25 02:11:32;;;;;;;5.20;4.80;;;;;25.60;99975.00;;;;2079645;28;20221;-53
2022/07/25 02:12:33;;;;;;;5.23;4.83;;;;;25.60;99973.00;;;;2073926;28;20221;-53
2022/07/25 02:13:33;;;;;;;4.77;4.47;;;;;25.60;99977.00;;;;2078819;28;20217;-53
2022/07/25 02:14:33;;;;;;;4.67;4.37;;;;;25.60;99996.00;;;;2078820;28;20214;-53
2022/07/25 02:15:34;;;;;;;5.10;4.70;;;;;25.60;99973.00;;;;2079376;28;21014;-53
2022/07/25 02:16:34;;;;;;;4.77;4.40;;;;;25.60;99974.00;;;;2079522;28;20565;-53
2022/07/25 02:17:35;;;;;;;4.50;4.20;;;;;25.60;99968.00;;;;2078528;28;20591;-54
2022/07/25 02:18:35;;;;;;;5.67;5.27;;;;;25.60;99959.00;;;;2079696;28;20717;-53
2022/07/25 02:19:36;;;;;;;4.80;4.50;;;;;25.60;99971.00;;;;2078527;28;20605;-53
2022/07/25 02:20:36;;;;;;;4.53;4.23;;;;;25.60;99962.00;;;;2079177;28;20247;-53
2022/07/25 02:21:36;;;;;;;4.90;4.60;;;;;25.60;99968.00;;;;2079669;28;20241;-53
2022/07/25 02:22:36;;;;;;;4.70;4.40;;;;;25.60;99949.00;;;;2087296;28;20588;-53
2022/07/25 02:23:37;;;;;;;4.47;4.17;;;;;25.60;99964.00;;;;2086566;28;20625;-59
2022/07/25 02:24:37;;;;;;;4.70;4.40;;;;;25.60;99962.00;;;;2086024;28;20216;-58
2022/07/25 02:25:37;;;;;;;4.47;4.17;;;;;25.60;99968.00;;;;2087387;28;20271;-54
2022/07/25 02:26:38;;;;;;;4.83;4.53;;;;;25.60;99958.00;;;;2087810;28;20254;-54
2022/07/25 02:27:38;;;;;;;4.40;4.00;;;;;25.60;99963.00;;;;2085890;28;20217;-53
2022/07/25 02:28:39;;;;;;;4.57;4.27;;;;;25.60;99968.00;;;;2086801;28;20213;-53
2022/07/25 02:29:39;;;;;;;4.87;4.57;;;;;25.60;99958.00;;;;2087768;28;20209;-53
2022/07/25 02:30:39;;;;;;;5.10;4.70;;;;;25.60;99960.00;;;;2079620;28;20260;-53
2022/07/25 02:31:40;;;;;;;4.53;4.23;;;;;25.60;99956.00;;;;2079466;28;20209;-53
2022/07/25 02:32:40;;;;;;;4.80;4.50;;;;;25.60;99954.00;;;;2078545;28;20244;-53
2022/07/25 02:33:40;;;;;;;5.00;4.60;;;;;25.60;99955.00;;;;2079506;28;20210;-53
2022/07/25 02:34:41;;;;;;;4.23;3.93;;;;;25.60;99957.00;;;;2079425;28;20283;-53
2022/07/25 02:35:41;;;;;;;4.47;4.17;;;;;25.60;99952.00;;;;2079299;28;20220;-53
2022/07/25 02:36:41;;;;;;;4.93;4.53;;;;;25.60;99946.00;;;;2078742;28;20445;-53
2022/07/25 02:37:42;;;;;;;5.03;4.67;;;;;25.60;99950.00;;;;2077742;28;20589;-53
2022/07/25 02:38:42;;;;;;;4.70;4.30;;;;;25.60;99948.00;;;;2078025;28;20718;-53
2022/07/25 02:39:42;;;;;;;5.23;4.83;;;;;25.60;99951.00;;;;2078023;28;20213;-53
2022/07/25 02:40:43;;;;;;;4.90;4.50;;;;;25.60;99954.00;;;;2079037;28;20264;-53
2022/07/25 02:41:43;;;;;;;5.57;5.17;;;;;25.60;100010.00;;;;2078834;28;20245;-53
2022/07/25 02:42:43;;;;;;;5.27;4.87;;;;;25.60;99940.00;;;;2078500;28;20213;-53
2022/07/25 02:43:44;;;;;;;5.03;4.70;;;;;25.60;99947.00;;;;2079022;28;20239;-53
2022/07/25 02:44:44;;;;;;;5.40;5.00;;;;;24.40;99953.00;;;;2079363;28;20209;-53
2022/07/25 02:45:44;;;;;;;4.87;4.57;;;;;25.60;99950.00;;;;2079270;28;20294;-53
2022/07/25 02:46:45;;;;;;;5.97;4.77;;;;;25.60;99942.00;;;;2079291;28;20209;-53
2022/07/25 02:47:45;;;;;;;5.40;5.00;;;;;25.60;99950.00;;;;2077940;28;20237;-53
2022/07/25 02:48:45;;;;;;;4.70;4.30;;;;;25.60;99933.00;;;;2078896;28;20217;-53
2022/07/25 02:49:46;;;;;;;4.23;3.93;;;;;25.60;99938.00;;;;2079123;28;20214;-53
2022/07/25 02:50:46;;;;;;;5.27;4.87;;;;;25.60;99933.00;;;;2078980;28;20324;-53
2022/07/25 02:51:46;;;;;;;4.67;4.37;;;;;25.60;99936.00;;;;2078742;28;20569;-53
2022/07/25 02:52:47;;;;;;;4.50;4.20;;;;;25.60;99931.00;;;;2083593;28;20631;-53
2022/07/25 02:53:47;;;;;;;4.53;4.23;;;;;25.60;99919.00;;;;2080141;28;20682;-54
2022/07/25 02:54:47;;;;;;;4.43;4.13;;;;;25.60;99924.00;;;;2078793;28;20584;-54
2022/07/25 02:55:48;;;;;;;5.33;4.93;;;;;25.60;99930.00;;;;2078965;28;20221;-53
2022/07/25 02:56:48;;;;;;;4.90;4.57;;;;;25.60;99931.00;;;;2079062;28;20220;-53
2022/07/25 02:57:48;;;;;;;4.80;4.50;;;;;25.60;99929.00;;;;2085348;28;20295;-53
2022/07/25 02:58:48;;;;;;;5.03;4.63;;;;;25.60;99924.00;;;;2086731;28;20221;-53
2022/07/25 02:59:49;;;;;;;4.73;4.43;;;;;25.60;99921.00;;;;2087384;28;20212;-53
2022/07/25 03:00:49;;;;;;;4.73;4.43;;;;;25.60;99919.00;;;;2087000;28;20208;-53
2022/07/25 03:01:49;;;;;;;4.73;4.43;;;;;25.60;99923.00;;;;2079913;28;20335;-53
2022/07/25 03:02:50;;;;;;;5.07;4.77;;;;;25.60;99929.00;;;;2078410;28;20233;-53
2022/07/25 03:03:50;;;;;;;5.20;4.80;;;;;25.60;99920.00;;;;2078774;28;20210;-53
2022/07/25 03:04:50;;;;;;;4.67;4.37;;;;;25.60;99916.00;;;;2078935;28;20220;-53
2022/07/25 03:05:51;;;;;;;5.13;4.73;;;;;25.60;99919.00;;;;2078676;28;20683;-53
2022/07/25 03:06:51;;;;;;;5.43;5.03;;;;;25.60;99916.00;;;;2078779;28;20736;-53
2022/07/25 03:07:51;;;;;;;5.53;5.03;;;;;25.60;99903.00;;;;2077493;28;20222;-54
2022/07/25 03:08:52;;;;;;;4.77;4.47;;;;;25.60;99918.00;;;;2078928;28;20244;-53
2022/07/25 03:09:52;;;;;;;4.70;4.40;;;;;25.50;99918.00;;;;2078729;28;20229;-53
2022/07/25 03:10:52;;;;;;;4.80;4.50;;;;;25.60;99914.00;;;;2078782;28;20252;-53
2022/07/25 03:11:53;;;;;;;4.00;3.70;;;;;25.60;99917.00;;;;2078791;28;20217;-53
2022/07/25 03:12:53;;;;;;;5.30;4.90;;;;;25.60;99910.00;;;;2078463;28;20226;-53
2022/07/25 03:13:53;;;;;;;5.27;4.87;;;;;25.60;99912.00;;;;2078686;28;20226;-53
2022/07/25 03:14:54;;;;;;;4.90;4.60;;;;;25.60;99906.00;;;;2078686;28;20217;-53
2022/07/25 03:15:54;;;;;;;5.13;4.77;;;;;25.60;99904.00;;;;2078951;28;20221;-53
2022/07/25 03:16:54;;;;;;;4.87;4.57;;;;;25.50;99903.00;;;;2078222;28;20248;-53
2022/07/25 03:17:55;;;;;;;4.97;4.57;;;;;25.50;99903.00;;;;2077737;28;20244;-53
2022/07/25 03:18:55;;;;;;;4.53;4.13;;;;;25.60;99909.00;;;;2083970;28;20227;-53
2022/07/25 03:19:55;;;;;;;4.67;4.27;;;;;25.60;99918.00;;;;2086864;28;20211;-53
2022/07/25 03:20:56;;;;;;;4.80;4.40;;;;;25.60;99900.00;;;;2086716;28;20747;-53
2022/07/25 03:21:56;;;;;;;5.10;4.70;;;;;25.50;99904.00;;;;2086835;28;20209;-53
2022/07/25 03:22:57;;;;;;;5.13;4.73;;;;;25.60;99899.00;;;;2081967;28;20244;-53
2022/07/25 03:23:57;;;;;;;4.70;4.40;;;;;25.60;99903.00;;;;2078734;28;20245;-54
2022/07/25 03:24:57;;;;;;;5.03;4.63;;;;;25.60;99905.00;;;;2078506;28;20239;-53
2022/07/25 03:25:58;;;;;;;4.80;4.50;;;;;25.60;99908.00;;;;2078589;28;20244;-53
2022/07/25 03:26:58;;;;;;;4.70;4.40;;;;;25.60;99896.00;;;;2077968;28;20300;-53
2022/07/25 03:27:58;;;;;;;5.10;4.70;;;;;25.60;99896.00;;;;2077277;28;20224;-53
2022/07/25 03:28:59;;;;;;;4.70;4.40;;;;;25.60;99898.00;;;;2078452;28;20686;-53
2022/07/25 03:29:59;;;;;;;4.63;4.33;;;;;25.60;99899.00;;;;2078637;28;20224;-53
2022/07/25 03:30:59;;;;;;;5.50;5.10;;;;;25.60;99896.00;;;;2078669;28;20240;-53
2022/07/25 03:32:00;;;;;;;5.00;4.70;;;;;24.90;99898.00;;;;2078818;28;20218;-53
2022/07/25 03:33:00;;;;;;;4.70;4.30;;;;;25.50;99899.00;;;;2078707;28;20297;-53
2022/07/25 03:34:00;;;;;;;4.50;4.20;;;;;25.50;99898.00;;;;2077971;28;20215;-53
2022/07/25 03:35:01;;;;;;;4.63;4.23;;;;;25.50;99893.00;;;;2078476;28;20210;-53
2022/07/25 03:36:01;;;;;;;4.90;4.47;;;;;25.50;99896.00;;;;2078649;28;20318;-53
2022/07/25 03:37:02;;;;;;;5.17;4.87;;;;;25.60;99889.00;;;;2078491;28;20225;-53
2022/07/25 03:38:02;;;;;;;4.63;4.33;;;;;25.60;99899.00;;;;2077057;28;20425;-53
2022/07/25 03:39:03;;;;;;;4.90;4.50;;;;;25.60;99892.00;;;;2078314;28;20613;-53
2022/07/25 03:40:04;;;;;;;4.43;4.13;;;;;25.60;99886.00;;;;2079004;28;20217;-53
2022/07/25 03:41:04;;;;;;;6.10;5.50;;;;;25.60;99943.00;;;;2080955;28;20221;-53
2022/07/25 03:42:05;;;;;;;5.30;4.90;;;;;25.50;99894.00;;;;2087063;28;20840;-53
2022/07/25 03:43:05;;;;;;;5.17;4.77;;;;;25.60;99885.00;;;;2087099;28;20327;-53
2022/07/25 03:44:05;;;;;;;4.93;4.63;;;;;25.60;99892.00;;;;2086477;28;20208;-53
2022/07/25 03:45:06;;;;;;;5.00;4.60;;;;;25.60;99883.00;;;;2082600;28;20217;-53
2022/07/25 03:46:07;;;;;;;5.27;4.80;;;;;25.60;99889.00;;;;2078263;28;20243;-53
2022/07/25 03:47:07;;;;;;;4.93;4.53;;;;;25.60;99876.00;;;;2078773;28;20448;-53
2022/07/25 03:48:07;;;;;;;5.17;4.77;;;;;25.60;99886.00;;;;2077811;28;20216;-53
2022/07/25 03:49:08;;;;;;;4.90;4.60;;;;;25.60;99878.00;;;;2078662;28;20236;-53
2022/07/25 03:50:08;;;;;;;4.90;4.57;;;;;25.60;99877.00;;;;2079040;28;20221;-53
2022/07/25 03:51:08;;;;;;;4.87;4.50;;;;;25.60;99872.00;;;;2077299;28;21825;-54
2022/07/25 03:52:09;;;;;;;5.00;4.60;;;;;25.60;99874.00;;;;2083205;28;20220;-53
2022/07/25 03:53:09;;;;;;;5.30;4.93;;;;;25.50;99873.00;;;;2086858;28;20232;-53
2022/07/25 03:54:12;;;;;;;5.00;4.63;;;;;25.60;99865.00;;;;2087105;28;20240;-53
2022/07/25 03:55:13;;;;;;;4.50;4.20;;;;;25.50;99841.00;;;;2085893;28;20213;-53
2022/07/25 03:56:13;;;;;;;4.97;4.63;;;;;25.60;99869.00;;;;2086992;28;20733;-53
2022/07/25 03:57:14;;;;;;;5.20;4.80;;;;;25.60;99862.00;;;;2086570;28;20264;-53
2022/07/25 03:58:14;;;;;;;4.97;4.57;;;;;25.60;99859.00;;;;2086377;28;20216;-53
2022/07/25 03:59:16;;;;;;;5.00;4.60;;;;;25.60;99867.00;;;;2087102;28;20217;-53
2022/07/25 04:00:16;;;;;;;5.53;5.13;;;;;25.60;99865.00;;;;2086949;28;20220;-53
2022/07/25 04:01:16;;;;;;;4.77;4.47;;;;;25.60;99863.00;;;;2086856;28;20223;-53
2022/07/25 04:02:17;;;;;;;4.90;4.50;;;;;25.60;99861.00;;;;2086941;28;20209;-53
2022/07/25 04:03:17;;;;;;;5.57;5.17;;;;;25.50;99860.00;;;;2086993;28;20242;-53
2022/07/25 04:04:18;;;;;;;4.83;4.47;;;;;25.50;99865.00;;;;2086750;28;20216;-53
2022/07/25 04:05:18;;;;;;;4.67;4.37;;;;;25.50;99862.00;;;;2086618;28;20215;-53
2022/07/25 04:06:19;;;;;;;4.63;4.23;;;;;25.60;99858.00;;;;2086742;28;20213;-53
2022/07/25 04:07:19;;;;;;;5.03;4.73;;;;;25.60;99857.00;;;;2085456;28;20209;-53
2022/07/25 04:08:19;;;;;;;5.33;4.93;;;;;25.60;99869.00;;;;2086210;28;20208;-53
2022/07/25 04:09:19;;;;;;;5.00;4.60;;;;;25.50;99865.00;;;;2087013;28;20286;-53
2022/07/25 04:10:20;;;;;;;5.77;5.37;;;;;25.50;99857.00;;;;2086895;28;20220;-53
2022/07/25 04:11:21;;;;;;;5.10;4.70;;;;;25.60;99866.00;;;;2087021;28;20271;-53
2022/07/25 04:12:21;;;;;;;5.20;4.80;;;;;25.50;99864.00;;;;2085210;28;20270;-53
2022/07/25 04:13:21;;;;;;;5.10;4.77;;;;;25.60;99860.00;;;;2086988;28;20260;-53
2022/07/25 04:14:22;;;;;;;5.10;4.70;;;;;25.50;99865.00;;;;2085771;28;20228;-53
2022/07/25 04:15:22;;;;;;;5.40;5.00;;;;;25.60;99854.00;;;;2086094;28;20209;-53
2022/07/25 04:16:23;;;;;;;4.77;4.43;;;;;25.60;99865.00;;;;2086821;28;20257;-53
2022/07/25 04:17:23;;;;;;;4.80;4.40;;;;;25.60;99862.00;;;;2077092;28;20217;-58
2022/07/25 04:18:23;;;;;;;5.43;5.03;;;;;25.50;99859.00;;;;2078261;28;20224;-56
2022/07/25 04:19:24;;;;;;;5.77;5.10;;;;;25.50;99865.00;;;;2078085;28;20721;-55
2022/07/25 04:20:24;;;;;;;5.50;5.10;;;;;25.50;99856.00;;;;2078308;28;20317;-55
2022/07/25 04:21:25;;;;;;;4.97;4.60;;;;;25.50;99859.00;;;;2078051;28;20213;-53
2022/07/25 04:22:25;;;;;;;5.40;5.00;;;;;25.60;99855.00;;;;2078417;28;20224;-53
2022/07/25 04:23:27;;;;;;;5.50;5.10;;;;;25.60;99855.00;;;;2078404;28;20236;-54
2022/07/25 04:24:27;;;;;;;4.53;4.23;;;;;25.60;99844.00;;;;2077608;28;20698;-53
2022/07/25 04:25:28;;;;;;;5.10;4.70;;;;;25.60;99861.00;;;;2078957;28;20455;-53
2022/07/25 04:26:28;;;;;;;5.23;4.83;;;;;25.60;99853.00;;;;2087520;28;20263;-53
2022/07/25 04:27:28;;;;;;;5.70;5.30;;;;;25.60;99852.00;;;;2087292;28;20240;-53
2022/07/25 04:28:29;;;;;;;4.70;4.40;;;;;25.60;99858.00;;;;2088266;28;20209;-54
2022/07/25 04:29:29;;;;;;;5.13;4.73;;;;;25.60;99849.00;;;;2087620;28;20315;-53
2022/07/25 04:30:29;;;;;;;5.03;4.63;;;;;25.60;99850.00;;;;2087534;28;20587;-53
2022/07/25 04:31:30;;;;;;;5.03;4.63;;;;;25.60;99845.00;;;;2088050;28;20681;-53
2022/07/25 04:32:30;;;;;;;5.20;4.80;;;;;25.60;99841.00;;;;2088187;28;20758;-53
2022/07/25 04:33:30;;;;;;;4.57;4.27;;;;;25.60;99846.00;;;;2088184;28;20559;-53
2022/07/25 04:34:31;;;;;;;4.70;4.40;;;;;25.50;99840.00;;;;2088282;28;20769;-53
2022/07/25 04:35:31;;;;;;;5.07;4.67;;;;;25.60;99849.00;;;;2087905;28;20576;-53
2022/07/25 04:36:31;;;;;;;5.57;5.07;;;;;25.60;99665.00;;;;2088585;28;20567;-53
2022/07/25 04:37:32;;;;;;;5.07;4.67;;;;;25.60;99840.00;;;;2087355;28;20666;-53
2022/07/25 04:38:32;;;;;;;4.83;4.53;;;;;25.60;99834.00;;;;2088409;28;20587;-53
2022/07/25 04:39:32;;;;;;;4.47;4.17;;;;;25.60;99838.00;;;;2088541;28;20223;-53
2022/07/25 04:40:33;;;;;;;4.80;4.50;;;;;25.60;99842.00;;;;2088383;28;20208;-53
2022/07/25 04:41:33;;;;;;;5.33;4.83;;;;;25.60;99838.00;;;;2088304;28;20259;-53
2022/07/25 04:42:33;;;;;;;4.70;4.40;;;;;25.60;99839.00;;;;2088501;28;21015;-53
2022/07/25 04:43:34;;;;;;;5.00;4.60;;;;;25.60;99854.00;;;;2088501;28;20772;-54
2022/07/25 04:44:34;;;;;;;5.20;4.80;;;;;25.60;99849.00;;;;2088196;28;20685;-53
2022/07/25 04:45:34;;;;;;;5.20;4.83;;;;;25.60;99845.00;;;;2088286;28;20213;-53
2022/07/25 04:46:35;;;;;;;5.00;4.60;;;;;25.60;99837.00;;;;2088305;28;20219;-53
2022/07/25 04:47:35;;;;;;;4.90;4.60;;;;;25.60;99848.00;;;;2087395;28;20205;-53
2022/07/25 04:48:35;;;;;;;5.20;4.80;;;;;25.60;99855.00;;;;2082761;28;20216;-53
2022/07/25 04:49:36;;;;;;;5.10;4.70;;;;;25.60;99843.00;;;;2080263;28;20205;-53
2022/07/25 04:50:36;;;;;;;4.87;4.57;;;;;25.60;99839.00;;;;2080179;28;20259;-54
2022/07/25 04:51:36;;;;;;;5.10;4.70;;;;;25.60;99840.00;;;;2079187;28;20223;-53
2022/07/25 04:52:37;;;;;;;4.93;4.53;;;;;25.60;99844.00;;;;2080083;28;20213;-53
2022/07/25 04:53:37;;;;;;;4.77;4.47;;;;;25.60;99837.00;;;;2078645;28;20221;-53
2022/07/25 04:54:37;;;;;;;4.73;4.43;;;;;25.60;99839.00;;;;2078872;28;20220;-54
2022/07/25 04:55:39;;;;;;;4.90;4.57;;;;;25.60;99839.00;;;;2078993;28;20760;-53
2022/07/25 04:56:39;;;;;;;5.40;5.00;;;;;25.60;99840.00;;;;2078896;28;20279;-53
2022/07/25 04:57:40;;;;;;;4.83;4.53;;;;;25.60;99839.00;;;;2078622;28;20217;-53
2022/07/25 04:58:40;;;;;;;4.63;4.33;;;;;25.60;99832.00;;;;2079472;28;20221;-53
2022/07/25 04:59:40;;;;;;;5.17;4.80;;;;;25.60;99824.00;;;;2087499;28;20245;-53
2022/07/25 05:00:41;;;;;;;5.10;4.70;;;;;25.60;99834.00;;;;2087929;28;20213;-53
2022/07/25 05:01:41;;;;;;;5.80;5.40;;;;;25.60;99835.00;;;;2087707;28;20213;-53
2022/07/25 05:02:41;;;;;;;5.13;4.73;;;;;25.60;99835.00;;;;2088014;28;20204;-53